sensor_id;sensor_type;location;lat;lon;timestamp;P1;durP1;ratioP1;P2;durP2;ratioP2
72123;SDS011;63818;37.134;-8.548;2023-05-02T00:01:32;12.3;;;5.8;;
72123;SDS011;63818;37.134;-8.548;2023-05-02T00:06:18;13.1;;;5.6;;
72123;SDS011;63818;37.134;-8.548;2023-05-02T00:11:04;11.3;;;5.5;;
72123;SDS011;63818;37.134;-8.548;2023-05-02T00:15:51;11.1;;;5.4;;
72123;SDS011;63818;37.134;-8.548;2023-05-02T00:20:38;9.6;;;5.3;;
72123;SDS011;63818;37.134;-8.548;2023-05-02T00:25:24;9.5;;;5.4;;
72123;SDS011;63818;37.134;-8.548;2023-05-02T00:30:10;9.3;;;5.6;;
72123;SDS011;63818;37.134;-8.548;2023-05-02T00:34:56;9.7;;;5.5;;
72123;SDS011;63818;37.134;-8.548;2023-05-02T00:39:45;9.6;;;5.3;;
72123;SDS011;63818;37.134;-8.548;2023-05-02T00:44:31;10.7;;;5.5;;
72123;SDS011;63818;37.134;-8.548;2023-05-02T00:49:17;12.4;;;5.9;;
72123;SDS011;63818;37.134;-8.548;2023-05-02T00:54:03;11.3;;;5.7;;
72123;SDS011;63818;37.134;-8.548;2023-05-02T00:58:50;11.6;;;5.4;;
72123;SDS011;63818;37.134;-8.548;2023-05-02T01:03:38;10.2;;;5.1;;
72123;SDS011;63818;37.134;-8.548;2023-05-02T01:08:33;9.7;;;5.1;;
72123;SDS011;63818;37.134;-8.548;2023-05-02T01:13:25;15.8;;;5.5;;
72123;SDS011;63818;37.134;-8.548;2023-05-02T01:18:14;15.5;;;5.7;;
72123;SDS011;63818;37.134;-8.548;2023-05-02T01:23:08;10.8;;;5.5;;
72123;SDS011;63818;37.134;-8.548;2023-05-02T01:28:00;9.5;;;5.2;;
72123;SDS011;63818;37.134;-8.548;2023-05-02T01:32:52;11.9;;;5.2;;
72123;SDS011;63818;37.134;-8.548;2023-05-02T01:37:41;12.7;;;5.5;;
72123;SDS011;63818;37.134;-8.548;2023-05-02T01:42:29;9.1;;;5.4;;
72123;SDS011;63818;37.134;-8.548;2023-05-02T01:47:17;9.9;;;5.3;;
72123;SDS011;63818;37.134;-8.548;2023-05-02T01:52:06;11.8;;;5.2;;
72123;SDS011;63818;37.134;-8.548;2023-05-02T01:56:55;10.9;;;5.2;;
72123;SDS011;63818;37.134;-8.548;2023-05-02T02:01:43;9.3;;;5.2;;
72123;SDS011;63818;37.134;-8.548;2023-05-02T02:06:31;10.7;;;5.4;;
72123;SDS011;63818;37.134;-8.548;2023-05-02T02:11:20;10.2;;;5.4;;
72123;SDS011;63818;37.134;-8.548;2023-05-02T02:16:11;8.6;;;5.1;;
72123;SDS011;63818;37.134;-8.548;2023-05-02T02:21:04;9.3;;;5.3;;
72123;SDS011;63818;37.134;-8.548;2023-05-02T02:25:53;8.2;;;5.1;;
72123;SDS011;63818;37.134;-8.548;2023-05-02T02:30:42;9.4;;;5.3;;
72123;SDS011;63818;37.134;-8.548;2023-05-02T02:35:30;11.5;;;5.4;;
72123;SDS011;63818;37.134;-8.548;2023-05-02T02:40:22;10.5;;;5.2;;
72123;SDS011;63818;37.134;-8.548;2023-05-02T02:45:25;8.9;;;4.9;;
72123;SDS011;63818;37.134;-8.548;2023-05-02T02:50:19;8.1;;;4.9;;
72123;SDS011;63818;37.134;-8.548;2023-05-02T02:55:11;8.6;;;5.3;;
72123;SDS011;63818;37.134;-8.548;2023-05-02T03:00:05;9.1;;;5.3;;
72123;SDS011;63818;37.134;-8.548;2023-05-02T03:04:56;9.0;;;5.1;;
72123;SDS011;63818;37.134;-8.548;2023-05-02T03:09:44;8.5;;;5.1;;
72123;SDS011;63818;37.134;-8.548;2023-05-02T03:14:31;7.8;;;5.2;;
72123;SDS011;63818;37.134;-8.548;2023-05-02T03:19:20;8.8;;;5.3;;
72123;SDS011;63818;37.134;-8.548;2023-05-02T03:24:06;9.5;;;5.2;;
72123;SDS011;63818;37.134;-8.548;2023-05-02T03:28:52;9.2;;;5.1;;
72123;SDS011;63818;37.134;-8.548;2023-05-02T03:33:38;8.5;;;5.2;;
72123;SDS011;63818;37.134;-8.548;2023-05-02T03:38:24;8.1;;;5.3;;
72123;SDS011;63818;37.134;-8.548;2023-05-02T03:43:11;7.8;;;5.1;;
72123;SDS011;63818;37.134;-8.548;2023-05-02T03:47:57;8.0;;;5.2;;
72123;SDS011;63818;37.134;-8.548;2023-05-02T03:52:43;8.7;;;5.4;;
72123;SDS011;63818;37.134;-8.548;2023-05-02T03:57:30;8.8;;;5.5;;
72123;SDS011;63818;37.134;-8.548;2023-05-02T04:02:17;9.6;;;5.5;;
72123;SDS011;63818;37.134;-8.548;2023-05-02T04:07:03;9.1;;;5.3;;
72123;SDS011;63818;37.134;-8.548;2023-05-02T04:11:48;8.6;;;5.3;;
72123;SDS011;63818;37.134;-8.548;2023-05-02T04:16:34;9.5;;;5.5;;
72123;SDS011;63818;37.134;-8.548;2023-05-02T04:21:20;10.3;;;5.8;;
72123;SDS011;63818;37.134;-8.548;2023-05-02T04:26:06;9.8;;;5.7;;
72123;SDS011;63818;37.134;-8.548;2023-05-02T04:30:52;9.0;;;5.5;;
72123;SDS011;63818;37.134;-8.548;2023-05-02T04:35:40;9.7;;;5.8;;
72123;SDS011;63818;37.134;-8.548;2023-05-02T04:40:26;10.9;;;5.8;;
72123;SDS011;63818;37.134;-8.548;2023-05-02T04:45:13;9.5;;;5.3;;
72123;SDS011;63818;37.134;-8.548;2023-05-02T04:50:01;8.2;;;5.3;;
72123;SDS011;63818;37.134;-8.548;2023-05-02T04:54:47;9.2;;;5.7;;
72123;SDS011;63818;37.134;-8.548;2023-05-02T04:59:33;9.6;;;5.7;;
72123;SDS011;63818;37.134;-8.548;2023-05-02T05:04:19;8.9;;;5.6;;
72123;SDS011;63818;37.134;-8.548;2023-05-02T05:09:05;9.1;;;5.4;;
72123;SDS011;63818;37.134;-8.548;2023-05-02T05:13:52;10.1;;;5.3;;
72123;SDS011;63818;37.134;-8.548;2023-05-02T05:18:37;9.9;;;5.8;;
72123;SDS011;63818;37.134;-8.548;2023-05-02T05:23:23;11.2;;;6.2;;
72123;SDS011;63818;37.134;-8.548;2023-05-02T05:28:09;11.3;;;6.0;;
72123;SDS011;63818;37.134;-8.548;2023-05-02T05:32:55;10.4;;;5.8;;
72123;SDS011;63818;37.134;-8.548;2023-05-02T05:37:41;10.9;;;5.8;;
72123;SDS011;63818;37.134;-8.548;2023-05-02T05:42:28;9.7;;;5.8;;
72123;SDS011;63818;37.134;-8.548;2023-05-02T05:47:19;8.9;;;5.6;;
72123;SDS011;63818;37.134;-8.548;2023-05-02T05:52:06;9.9;;;5.5;;
72123;SDS011;63818;37.134;-8.548;2023-05-02T05:56:52;10.6;;;5.9;;
72123;SDS011;63818;37.134;-8.548;2023-05-02T06:01:41;11.6;;;6.0;;
72123;SDS011;63818;37.134;-8.548;2023-05-02T06:06:27;10.8;;;5.6;;
72123;SDS011;63818;37.134;-8.548;2023-05-02T06:11:13;9.9;;;5.8;;
72123;SDS011;63818;37.134;-8.548;2023-05-02T06:16:01;9.9;;;6.0;;
72123;SDS011;63818;37.134;-8.548;2023-05-02T06:20:47;9.0;;;5.9;;
72123;SDS011;63818;37.134;-8.548;2023-05-02T06:25:33;11.1;;;6.1;;
72123;SDS011;63818;37.134;-8.548;2023-05-02T06:30:22;16.2;;;6.6;;
72123;SDS011;63818;37.134;-8.548;2023-05-02T06:35:08;16.8;;;6.9;;
72123;SDS011;63818;37.134;-8.548;2023-05-02T06:39:56;13.2;;;6.8;;
72123;SDS011;63818;37.134;-8.548;2023-05-02T06:44:42;13.2;;;6.4;;
72123;SDS011;63818;37.134;-8.548;2023-05-02T06:49:30;12.5;;;6.2;;
72123;SDS011;63818;37.134;-8.548;2023-05-02T06:54:16;9.8;;;6.2;;
72123;SDS011;63818;37.134;-8.548;2023-05-02T06:59:03;11.0;;;6.3;;
72123;SDS011;63818;37.134;-8.548;2023-05-02T07:03:51;14.8;;;6.9;;
72123;SDS011;63818;37.134;-8.548;2023-05-02T07:08:37;16.9;;;6.8;;
72123;SDS011;63818;37.134;-8.548;2023-05-02T07:13:23;14.1;;;6.2;;
72123;SDS011;63818;37.134;-8.548;2023-05-02T07:18:09;12.4;;;6.3;;
72123;SDS011;63818;37.134;-8.548;2023-05-02T07:22:55;13.2;;;6.3;;
72123;SDS011;63818;37.134;-8.548;2023-05-02T07:27:44;13.4;;;6.3;;
72123;SDS011;63818;37.134;-8.548;2023-05-02T07:32:29;13.7;;;6.4;;
72123;SDS011;63818;37.134;-8.548;2023-05-02T07:37:18;14.2;;;6.3;;
72123;SDS011;63818;37.134;-8.548;2023-05-02T07:42:04;15.0;;;6.1;;
72123;SDS011;63818;37.134;-8.548;2023-05-02T07:46:50;13.5;;;6.2;;
72123;SDS011;63818;37.134;-8.548;2023-05-02T07:51:37;14.1;;;6.2;;
72123;SDS011;63818;37.134;-8.548;2023-05-02T07:56:23;16.6;;;6.3;;
72123;SDS011;63818;37.134;-8.548;2023-05-02T08:01:11;13.9;;;6.4;;
72123;SDS011;63818;37.134;-8.548;2023-05-02T08:06:00;11.3;;;6.2;;
72123;SDS011;63818;37.134;-8.548;2023-05-02T08:10:46;14.4;;;6.4;;
72123;SDS011;63818;37.134;-8.548;2023-05-02T08:15:32;15.1;;;6.5;;
72123;SDS011;63818;37.134;-8.548;2023-05-02T08:20:18;11.8;;;6.5;;
72123;SDS011;63818;37.134;-8.548;2023-05-02T08:25:05;10.7;;;6.4;;
72123;SDS011;63818;37.134;-8.548;2023-05-02T08:29:51;12.0;;;6.4;;
72123;SDS011;63818;37.134;-8.548;2023-05-02T08:34:37;15.6;;;7.1;;
72123;SDS011;63818;37.134;-8.548;2023-05-02T08:39:23;18.5;;;7.1;;
72123;SDS011;63818;37.134;-8.548;2023-05-02T08:44:09;18.4;;;6.5;;
72123;SDS011;63818;37.134;-8.548;2023-05-02T08:48:59;17.1;;;6.5;;
72123;SDS011;63818;37.134;-8.548;2023-05-02T08:53:46;16.4;;;6.6;;
72123;SDS011;63818;37.134;-8.548;2023-05-02T08:58:34;13.8;;;6.5;;
72123;SDS011;63818;37.134;-8.548;2023-05-02T09:03:22;12.4;;;6.3;;
72123;SDS011;63818;37.134;-8.548;2023-05-02T09:08:18;14.1;;;6.4;;
72123;SDS011;63818;37.134;-8.548;2023-05-02T09:14:05;14.3;;;7.4;;
72123;SDS011;63818;37.134;-8.548;2023-05-02T09:19:02;17.1;;;7.4;;
72123;SDS011;63818;37.134;-8.548;2023-05-02T09:23:49;20.8;;;6.8;;
72123;SDS011;63818;37.134;-8.548;2023-05-02T09:28:40;14.0;;;6.8;;
72123;SDS011;63818;37.134;-8.548;2023-05-02T09:33:27;11.8;;;6.3;;
72123;SDS011;63818;37.134;-8.548;2023-05-02T09:38:17;9.5;;;5.8;;
72123;SDS011;63818;37.134;-8.548;2023-05-02T09:43:14;9.9;;;5.8;;
72123;SDS011;63818;37.134;-8.548;2023-05-02T09:48:02;10.6;;;5.8;;
72123;SDS011;63818;37.134;-8.548;2023-05-02T09:53:01;13.0;;;5.8;;
72123;SDS011;63818;37.134;-8.548;2023-05-02T09:57:47;12.9;;;6.0;;
72123;SDS011;63818;37.134;-8.548;2023-05-02T10:02:33;9.9;;;6.0;;
72123;SDS011;63818;37.134;-8.548;2023-05-02T10:07:19;11.0;;;6.0;;
72123;SDS011;63818;37.134;-8.548;2023-05-02T10:12:06;13.2;;;5.9;;
72123;SDS011;63818;37.134;-8.548;2023-05-02T10:16:54;11.5;;;5.6;;
72123;SDS011;63818;37.134;-8.548;2023-05-02T10:21:44;9.8;;;5.6;;
72123;SDS011;63818;37.134;-8.548;2023-05-02T10:26:32;11.1;;;5.9;;
72123;SDS011;63818;37.134;-8.548;2023-05-02T10:31:19;12.1;;;6.0;;
72123;SDS011;63818;37.134;-8.548;2023-05-02T10:36:06;10.5;;;5.9;;
72123;SDS011;63818;37.134;-8.548;2023-05-02T10:40:54;8.8;;;5.5;;
72123;SDS011;63818;37.134;-8.548;2023-05-02T10:45:42;10.2;;;5.4;;
72123;SDS011;63818;37.134;-8.548;2023-05-02T10:50:35;11.2;;;5.5;;
72123;SDS011;63818;37.134;-8.548;2023-05-02T10:55:38;10.9;;;5.5;;
72123;SDS011;63818;37.134;-8.548;2023-05-02T11:00:25;10.8;;;5.4;;
72123;SDS011;63818;37.134;-8.548;2023-05-02T11:05:13;12.2;;;5.4;;
72123;SDS011;63818;37.134;-8.548;2023-05-02T11:15:12;10.7;;;5.0;;
72123;SDS011;63818;37.134;-8.548;2023-05-02T11:26:37;9.8;;;4.9;;
72123;SDS011;63818;37.134;-8.548;2023-05-02T11:38:24;12.3;;;5.2;;
72123;SDS011;63818;37.134;-8.548;2023-05-02T11:43:15;11.7;;;5.4;;
72123;SDS011;63818;37.134;-8.548;2023-05-02T11:48:02;12.6;;;5.4;;
72123;SDS011;63818;37.134;-8.548;2023-05-02T11:52:48;11.9;;;5.2;;
72123;SDS011;63818;37.134;-8.548;2023-05-02T11:57:35;9.2;;;5.1;;
72123;SDS011;63818;37.134;-8.548;2023-05-02T12:02:33;8.6;;;4.9;;
72123;SDS011;63818;37.134;-8.548;2023-05-02T12:07:34;9.6;;;5.2;;
72123;SDS011;63818;37.134;-8.548;2023-05-02T12:12:21;11.8;;;5.6;;
72123;SDS011;63818;37.134;-8.548;2023-05-02T12:17:07;13.9;;;5.4;;
72123;SDS011;63818;37.134;-8.548;2023-05-02T12:21:53;13.1;;;5.4;;
72123;SDS011;63818;37.134;-8.548;2023-05-02T12:26:39;11.0;;;5.2;;
72123;SDS011;63818;37.134;-8.548;2023-05-02T12:31:26;10.3;;;5.1;;
72123;SDS011;63818;37.134;-8.548;2023-05-02T12:36:11;8.9;;;5.2;;
72123;SDS011;63818;37.134;-8.548;2023-05-02T12:40:57;9.5;;;5.5;;
72123;SDS011;63818;37.134;-8.548;2023-05-02T12:45:46;10.5;;;5.5;;
72123;SDS011;63818;37.134;-8.548;2023-05-02T12:50:38;10.9;;;5.5;;
72123;SDS011;63818;37.134;-8.548;2023-05-02T12:55:24;10.3;;;5.8;;
72123;SDS011;63818;37.134;-8.548;2023-05-02T13:00:11;9.5;;;5.7;;
72123;SDS011;63818;37.134;-8.548;2023-05-02T13:04:58;12.0;;;6.0;;
72123;SDS011;63818;37.134;-8.548;2023-05-02T13:09:45;12.3;;;6.0;;
72123;SDS011;63818;37.134;-8.548;2023-05-02T13:14:31;11.4;;;5.7;;
72123;SDS011;63818;37.134;-8.548;2023-05-02T13:19:17;12.5;;;6.0;;
72123;SDS011;63818;37.134;-8.548;2023-05-02T13:24:04;11.0;;;6.1;;
72123;SDS011;63818;37.134;-8.548;2023-05-02T13:28:50;11.4;;;6.3;;
72123;SDS011;63818;37.134;-8.548;2023-05-02T13:33:36;11.8;;;6.3;;
72123;SDS011;63818;37.134;-8.548;2023-05-02T13:38:22;12.7;;;6.2;;
72123;SDS011;63818;37.134;-8.548;2023-05-02T13:43:08;17.2;;;6.4;;
72123;SDS011;63818;37.134;-8.548;2023-05-02T13:47:55;16.1;;;6.1;;
72123;SDS011;63818;37.134;-8.548;2023-05-02T13:52:41;12.1;;;5.9;;
72123;SDS011;63818;37.134;-8.548;2023-05-02T13:57:27;11.4;;;5.8;;
72123;SDS011;63818;37.134;-8.548;2023-05-02T14:02:13;12.3;;;5.7;;
72123;SDS011;63818;37.134;-8.548;2023-05-02T14:06:59;13.7;;;5.9;;
72123;SDS011;63818;37.134;-8.548;2023-05-02T14:11:45;12.2;;;5.7;;
72123;SDS011;63818;37.134;-8.548;2023-05-02T14:16:31;11.0;;;5.8;;
72123;SDS011;63818;37.134;-8.548;2023-05-02T14:21:17;11.5;;;6.1;;
72123;SDS011;63818;37.134;-8.548;2023-05-02T14:26:03;11.4;;;6.1;;
72123;SDS011;63818;37.134;-8.548;2023-05-02T14:30:50;10.8;;;5.8;;
72123;SDS011;63818;37.134;-8.548;2023-05-02T14:35:36;9.5;;;5.7;;
72123;SDS011;63818;37.134;-8.548;2023-05-02T14:40:22;9.9;;;5.8;;
72123;SDS011;63818;37.134;-8.548;2023-05-02T14:45:09;11.5;;;5.6;;
72123;SDS011;63818;37.134;-8.548;2023-05-02T14:49:56;11.1;;;5.6;;
72123;SDS011;63818;37.134;-8.548;2023-05-02T14:54:42;16.8;;;5.9;;
72123;SDS011;63818;37.134;-8.548;2023-05-02T14:59:28;18.6;;;6.2;;
72123;SDS011;63818;37.134;-8.548;2023-05-02T15:04:15;13.9;;;6.1;;
72123;SDS011;63818;37.134;-8.548;2023-05-02T15:09:01;12.0;;;5.8;;
72123;SDS011;63818;37.134;-8.548;2023-05-02T15:13:47;12.6;;;5.7;;
72123;SDS011;63818;37.134;-8.548;2023-05-02T15:18:33;14.3;;;5.9;;
72123;SDS011;63818;37.134;-8.548;2023-05-02T15:23:19;12.1;;;5.9;;
72123;SDS011;63818;37.134;-8.548;2023-05-02T15:28:08;14.1;;;5.9;;
72123;SDS011;63818;37.134;-8.548;2023-05-02T15:32:54;14.8;;;6.1;;
72123;SDS011;63818;37.134;-8.548;2023-05-02T15:37:42;11.0;;;5.7;;
72123;SDS011;63818;37.134;-8.548;2023-05-02T15:42:28;9.5;;;5.6;;
72123;SDS011;63818;37.134;-8.548;2023-05-02T15:47:15;9.8;;;5.7;;
72123;SDS011;63818;37.134;-8.548;2023-05-02T15:52:02;10.4;;;5.6;;
72123;SDS011;63818;37.134;-8.548;2023-05-02T15:56:54;10.8;;;5.8;;
72123;SDS011;63818;37.134;-8.548;2023-05-02T16:01:42;10.7;;;5.8;;
72123;SDS011;63818;37.134;-8.548;2023-05-02T16:06:35;12.1;;;5.9;;
72123;SDS011;63818;37.134;-8.548;2023-05-02T16:11:21;12.8;;;6.0;;
72123;SDS011;63818;37.134;-8.548;2023-05-02T16:16:08;12.9;;;6.2;;
72123;SDS011;63818;37.134;-8.548;2023-05-02T16:20:54;12.6;;;6.4;;
72123;SDS011;63818;37.134;-8.548;2023-05-02T16:25:41;11.8;;;6.0;;
72123;SDS011;63818;37.134;-8.548;2023-05-02T16:30:28;13.7;;;6.1;;
72123;SDS011;63818;37.134;-8.548;2023-05-02T16:35:14;13.4;;;6.5;;
72123;SDS011;63818;37.134;-8.548;2023-05-02T16:40:02;11.6;;;6.3;;
72123;SDS011;63818;37.134;-8.548;2023-05-02T16:44:48;11.6;;;6.2;;
72123;SDS011;63818;37.134;-8.548;2023-05-02T16:49:34;12.4;;;6.4;;
72123;SDS011;63818;37.134;-8.548;2023-05-02T16:54:20;12.4;;;6.4;;
72123;SDS011;63818;37.134;-8.548;2023-05-02T16:59:06;12.2;;;6.1;;
72123;SDS011;63818;37.134;-8.548;2023-05-02T17:03:52;14.4;;;5.9;;
72123;SDS011;63818;37.134;-8.548;2023-05-02T17:08:40;13.9;;;6.1;;
72123;SDS011;63818;37.134;-8.548;2023-05-02T17:13:27;12.3;;;6.3;;
72123;SDS011;63818;37.134;-8.548;2023-05-02T17:18:13;14.6;;;6.1;;
72123;SDS011;63818;37.134;-8.548;2023-05-02T17:23:02;13.8;;;6.0;;
72123;SDS011;63818;37.134;-8.548;2023-05-02T17:27:48;11.6;;;6.1;;
72123;SDS011;63818;37.134;-8.548;2023-05-02T17:32:35;12.6;;;6.4;;
72123;SDS011;63818;37.134;-8.548;2023-05-02T17:37:21;13.2;;;6.5;;
72123;SDS011;63818;37.134;-8.548;2023-05-02T17:42:08;13.7;;;6.2;;
72123;SDS011;63818;37.134;-8.548;2023-05-02T17:51:48;12.5;;;6.2;;
72123;SDS011;63818;37.134;-8.548;2023-05-02T17:56:34;15.6;;;6.5;;
72123;SDS011;63818;37.134;-8.548;2023-05-02T18:01:23;15.3;;;6.6;;
72123;SDS011;63818;37.134;-8.548;2023-05-02T18:06:16;13.4;;;6.5;;
72123;SDS011;63818;37.134;-8.548;2023-05-02T18:11:02;15.8;;;6.1;;
72123;SDS011;63818;37.134;-8.548;2023-05-02T18:15:55;14.8;;;5.9;;
72123;SDS011;63818;37.134;-8.548;2023-05-02T18:20:41;13.2;;;6.3;;
72123;SDS011;63818;37.134;-8.548;2023-05-02T18:25:29;13.2;;;6.4;;
72123;SDS011;63818;37.134;-8.548;2023-05-02T18:30:18;14.8;;;6.4;;
72123;SDS011;63818;37.134;-8.548;2023-05-02T18:35:06;19.1;;;6.5;;
72123;SDS011;63818;37.134;-8.548;2023-05-02T18:39:59;16.8;;;6.4;;
72123;SDS011;63818;37.134;-8.548;2023-05-02T18:44:46;15.1;;;6.8;;
72123;SDS011;63818;37.134;-8.548;2023-05-02T18:49:32;13.8;;;6.8;;
72123;SDS011;63818;37.134;-8.548;2023-05-02T18:54:20;15.5;;;6.8;;
72123;SDS011;63818;37.134;-8.548;2023-05-02T18:59:07;16.5;;;7.1;;
72123;SDS011;63818;37.134;-8.548;2023-05-02T19:03:52;13.2;;;6.6;;
72123;SDS011;63818;37.134;-8.548;2023-05-02T19:08:39;12.7;;;6.7;;
72123;SDS011;63818;37.134;-8.548;2023-05-02T19:13:25;15.9;;;7.3;;
72123;SDS011;63818;37.134;-8.548;2023-05-02T19:18:11;17.7;;;6.9;;
72123;SDS011;63818;37.134;-8.548;2023-05-02T19:22:58;15.7;;;6.9;;
72123;SDS011;63818;37.134;-8.548;2023-05-02T19:27:43;15.3;;;7.1;;
72123;SDS011;63818;37.134;-8.548;2023-05-02T19:32:29;14.5;;;6.9;;
72123;SDS011;63818;37.134;-8.548;2023-05-02T19:37:16;13.4;;;6.8;;
72123;SDS011;63818;37.134;-8.548;2023-05-02T19:42:02;13.9;;;6.5;;
72123;SDS011;63818;37.134;-8.548;2023-05-02T19:46:48;14.2;;;6.5;;
72123;SDS011;63818;37.134;-8.548;2023-05-02T19:51:34;13.7;;;6.4;;
72123;SDS011;63818;37.134;-8.548;2023-05-02T19:56:21;13.8;;;6.4;;
72123;SDS011;63818;37.134;-8.548;2023-05-02T20:01:07;14.5;;;6.3;;
72123;SDS011;63818;37.134;-8.548;2023-05-02T20:05:53;18.1;;;6.4;;
72123;SDS011;63818;37.134;-8.548;2023-05-02T20:10:39;17.3;;;6.6;;
72123;SDS011;63818;37.134;-8.548;2023-05-02T20:15:26;14.4;;;6.8;;
72123;SDS011;63818;37.134;-8.548;2023-05-02T20:20:12;15.8;;;6.6;;
72123;SDS011;63818;37.134;-8.548;2023-05-02T20:24:59;14.5;;;6.2;;
72123;SDS011;63818;37.134;-8.548;2023-05-02T20:29:45;13.5;;;6.1;;
72123;SDS011;63818;37.134;-8.548;2023-05-02T20:34:31;17.2;;;6.5;;
72123;SDS011;63818;37.134;-8.548;2023-05-02T20:39:18;18.3;;;6.5;;
72123;SDS011;63818;37.134;-8.548;2023-05-02T20:44:04;15.7;;;6.2;;
72123;SDS011;63818;37.134;-8.548;2023-05-02T20:48:50;16.0;;;6.1;;
72123;SDS011;63818;37.134;-8.548;2023-05-02T20:53:37;17.1;;;6.1;;
72123;SDS011;63818;37.134;-8.548;2023-05-02T20:58:23;14.1;;;6.3;;
72123;SDS011;63818;37.134;-8.548;2023-05-02T21:03:09;12.1;;;6.3;;
72123;SDS011;63818;37.134;-8.548;2023-05-02T21:07:55;14.2;;;6.3;;
72123;SDS011;63818;37.134;-8.548;2023-05-02T21:12:41;15.0;;;6.6;;
72123;SDS011;63818;37.134;-8.548;2023-05-02T21:17:27;12.0;;;6.3;;
72123;SDS011;63818;37.134;-8.548;2023-05-02T21:22:15;12.3;;;6.1;;
72123;SDS011;63818;37.134;-8.548;2023-05-02T21:27:01;13.1;;;6.4;;
72123;SDS011;63818;37.134;-8.548;2023-05-02T21:31:50;10.9;;;6.2;;
72123;SDS011;63818;37.134;-8.548;2023-05-02T21:36:36;12.8;;;6.1;;
72123;SDS011;63818;37.134;-8.548;2023-05-02T21:41:22;14.8;;;6.4;;
72123;SDS011;63818;37.134;-8.548;2023-05-02T21:46:11;14.0;;;6.6;;
72123;SDS011;63818;37.134;-8.548;2023-05-02T21:50:57;14.8;;;6.6;;
72123;SDS011;63818;37.134;-8.548;2023-05-02T21:55:43;15.1;;;6.6;;
72123;SDS011;63818;37.134;-8.548;2023-05-02T22:00:29;14.6;;;6.6;;
72123;SDS011;63818;37.134;-8.548;2023-05-02T22:05:18;14.2;;;6.6;;
72123;SDS011;63818;37.134;-8.548;2023-05-02T22:10:04;12.7;;;6.3;;
72123;SDS011;63818;37.134;-8.548;2023-05-02T22:14:50;13.0;;;6.2;;
72123;SDS011;63818;37.134;-8.548;2023-05-02T22:19:36;14.3;;;6.3;;
72123;SDS011;63818;37.134;-8.548;2023-05-02T22:24:22;12.3;;;5.9;;
72123;SDS011;63818;37.134;-8.548;2023-05-02T22:29:08;12.8;;;5.8;;
72123;SDS011;63818;37.134;-8.548;2023-05-02T22:33:54;18.4;;;6.4;;
72123;SDS011;63818;37.134;-8.548;2023-05-02T22:38:40;18.4;;;6.6;;
72123;SDS011;63818;37.134;-8.548;2023-05-02T22:43:26;12.5;;;6.2;;
72123;SDS011;63818;37.134;-8.548;2023-05-02T22:48:12;12.5;;;6.2;;
72123;SDS011;63818;37.134;-8.548;2023-05-02T22:52:58;14.9;;;6.3;;
72123;SDS011;63818;37.134;-8.548;2023-05-02T22:57:44;12.2;;;6.1;;
72123;SDS011;63818;37.134;-8.548;2023-05-02T23:02:32;12.5;;;5.8;;
72123;SDS011;63818;37.134;-8.548;2023-05-02T23:07:19;12.7;;;6.0;;
72123;SDS011;63818;37.134;-8.548;2023-05-02T23:12:05;9.8;;;5.8;;
72123;SDS011;63818;37.134;-8.548;2023-05-02T23:16:51;11.5;;;5.7;;
72123;SDS011;63818;37.134;-8.548;2023-05-02T23:21:39;13.8;;;6.2;;
72123;SDS011;63818;37.134;-8.548;2023-05-02T23:26:26;13.1;;;6.3;;
72123;SDS011;63818;37.134;-8.548;2023-05-02T23:31:12;14.4;;;6.3;;
72123;SDS011;63818;37.134;-8.548;2023-05-02T23:35:59;15.5;;;6.3;;
72123;SDS011;63818;37.134;-8.548;2023-05-02T23:40:45;13.5;;;6.1;;
72123;SDS011;63818;37.134;-8.548;2023-05-02T23:45:33;14.1;;;6.2;;
72123;SDS011;63818;37.134;-8.548;2023-05-02T23:50:19;13.7;;;6.2;;
72123;SDS011;63818;37.134;-8.548;2023-05-02T23:55:06;12.9;;;6.0;;
72123;SDS011;63818;37.134;-8.548;2023-05-02T23:59:52;14.8;;;6.3;;
